sensor_id;sensor_type;location;lat;lon;timestamp;temperature;humidity
35541;DHT22;21650;48.840;9.162;2023-04-23T00:00:07;14.50;99.90
35541;DHT22;21650;48.840;9.162;2023-04-23T00:02:36;14.50;99.90
35541;DHT22;21650;48.840;9.162;2023-04-23T00:05:04;14.60;99.90
35541;DHT22;21650;48.840;9.162;2023-04-23T00:07:34;14.50;99.90
35541;DHT22;21650;48.840;9.162;2023-04-23T00:10:01;14.50;99.90
35541;DHT22;21650;48.840;9.162;2023-04-23T00:12:30;14.50;99.90
35541;DHT22;21650;48.840;9.162;2023-04-23T00:14:56;14.50;99.90
35541;DHT22;21650;48.840;9.162;2023-04-23T00:17:22;14.50;99.90
35541;DHT22;21650;48.840;9.162;2023-04-23T00:19:47;14.50;99.90
35541;DHT22;21650;48.840;9.162;2023-04-23T00:22:13;14.50;99.90
35541;DHT22;21650;48.840;9.162;2023-04-23T00:24:41;14.50;99.90
35541;DHT22;21650;48.840;9.162;2023-04-23T00:27:06;14.50;99.90
35541;DHT22;21650;48.840;9.162;2023-04-23T00:29:32;14.50;99.90
35541;DHT22;21650;48.840;9.162;2023-04-23T00:31:59;14.50;99.90
35541;DHT22;21650;48.840;9.162;2023-04-23T00:34:25;14.40;99.90
35541;DHT22;21650;48.840;9.162;2023-04-23T00:36:50;14.40;99.90
35541;DHT22;21650;48.840;9.162;2023-04-23T00:39:16;14.40;99.90
35541;DHT22;21650;48.840;9.162;2023-04-23T00:41:41;14.30;99.90
35541;DHT22;21650;48.840;9.162;2023-04-23T00:44:07;14.30;99.90
35541;DHT22;21650;48.840;9.162;2023-04-23T00:46:34;14.30;99.90
35541;DHT22;21650;48.840;9.162;2023-04-23T00:49:00;14.30;99.90
35541;DHT22;21650;48.840;9.162;2023-04-23T00:51:27;14.20;99.90
35541;DHT22;21650;48.840;9.162;2023-04-23T00:53:53;14.20;99.90
35541;DHT22;21650;48.840;9.162;2023-04-23T00:56:19;14.20;99.90
35541;DHT22;21650;48.840;9.162;2023-04-23T00:58:46;14.10;99.90
35541;DHT22;21650;48.840;9.162;2023-04-23T01:01:12;14.10;99.90
35541;DHT22;21650;48.840;9.162;2023-04-23T01:03:38;14.10;99.90
35541;DHT22;21650;48.840;9.162;2023-04-23T01:06:06;14.00;99.90
35541;DHT22;21650;48.840;9.162;2023-04-23T01:08:32;14.10;99.90
35541;DHT22;21650;48.840;9.162;2023-04-23T01:10:58;14.00;99.90
35541;DHT22;21650;48.840;9.162;2023-04-23T01:13:24;14.00;99.90
35541;DHT22;21650;48.840;9.162;2023-04-23T01:15:54;14.00;99.90
35541;DHT22;21650;48.840;9.162;2023-04-23T01:18:20;14.00;99.90
35541;DHT22;21650;48.840;9.162;2023-04-23T01:20:45;14.00;99.90
35541;DHT22;21650;48.840;9.162;2023-04-23T01:23:11;14.00;99.90
35541;DHT22;21650;48.840;9.162;2023-04-23T01:25:37;13.90;99.90
35541;DHT22;21650;48.840;9.162;2023-04-23T01:28:04;13.90;99.90
35541;DHT22;21650;48.840;9.162;2023-04-23T01:30:31;13.80;99.90
35541;DHT22;21650;48.840;9.162;2023-04-23T01:32:57;13.80;99.90
35541;DHT22;21650;48.840;9.162;2023-04-23T01:35:24;13.70;99.90
35541;DHT22;21650;48.840;9.162;2023-04-23T01:37:50;13.70;99.90
35541;DHT22;21650;48.840;9.162;2023-04-23T01:40:17;13.60;99.90
35541;DHT22;21650;48.840;9.162;2023-04-23T01:42:43;13.60;99.90
35541;DHT22;21650;48.840;9.162;2023-04-23T01:45:09;13.60;99.90
35541;DHT22;21650;48.840;9.162;2023-04-23T01:47:35;13.60;99.90
35541;DHT22;21650;48.840;9.162;2023-04-23T01:50:00;13.50;99.90
35541;DHT22;21650;48.840;9.162;2023-04-23T01:52:26;13.50;99.90
35541;DHT22;21650;48.840;9.162;2023-04-23T01:54:52;13.50;99.90
35541;DHT22;21650;48.840;9.162;2023-04-23T01:57:17;13.40;99.90
35541;DHT22;21650;48.840;9.162;2023-04-23T01:59:49;13.40;99.90
35541;DHT22;21650;48.840;9.162;2023-04-23T02:02:15;13.40;99.90
35541;DHT22;21650;48.840;9.162;2023-04-23T02:04:43;13.30;99.90
35541;DHT22;21650;48.840;9.162;2023-04-23T02:07:09;13.30;99.90
35541;DHT22;21650;48.840;9.162;2023-04-23T02:09:35;13.30;99.90
35541;DHT22;21650;48.840;9.162;2023-04-23T02:12:00;13.20;99.90
35541;DHT22;21650;48.840;9.162;2023-04-23T02:14:26;13.20;99.90
35541;DHT22;21650;48.840;9.162;2023-04-23T02:16:53;13.20;99.90
35541;DHT22;21650;48.840;9.162;2023-04-23T02:19:18;13.10;99.90
35541;DHT22;21650;48.840;9.162;2023-04-23T02:21:44;13.10;99.90
35541;DHT22;21650;48.840;9.162;2023-04-23T02:24:09;13.00;99.90
35541;DHT22;21650;48.840;9.162;2023-04-23T02:26:35;13.10;99.90
35541;DHT22;21650;48.840;9.162;2023-04-23T02:29:01;13.10;99.90
35541;DHT22;21650;48.840;9.162;2023-04-23T02:31:27;13.20;99.90
35541;DHT22;21650;48.840;9.162;2023-04-23T02:33:52;13.10;99.90
35541;DHT22;21650;48.840;9.162;2023-04-23T02:36:18;13.10;99.90
35541;DHT22;21650;48.840;9.162;2023-04-23T02:38:43;13.10;99.90
35541;DHT22;21650;48.840;9.162;2023-04-23T02:41:10;13.10;99.90
35541;DHT22;21650;48.840;9.162;2023-04-23T02:43:36;13.10;99.90
35541;DHT22;21650;48.840;9.162;2023-04-23T02:46:02;13.10;99.90
35541;DHT22;21650;48.840;9.162;2023-04-23T02:48:39;13.10;99.90
35541;DHT22;21650;48.840;9.162;2023-04-23T02:51:06;13.10;99.90
35541;DHT22;21650;48.840;9.162;2023-04-23T02:53:32;13.10;99.90
35541;DHT22;21650;48.840;9.162;2023-04-23T02:55:58;13.00;99.90
35541;DHT22;21650;48.840;9.162;2023-04-23T02:58:23;12.90;99.90
35541;DHT22;21650;48.840;9.162;2023-04-23T03:00:49;12.90;99.90
35541;DHT22;21650;48.840;9.162;2023-04-23T03:03:15;12.80;99.90
35541;DHT22;21650;48.840;9.162;2023-04-23T03:05:41;12.80;99.90
35541;DHT22;21650;48.840;9.162;2023-04-23T03:08:06;12.90;99.90
35541;DHT22;21650;48.840;9.162;2023-04-23T03:10:32;12.90;99.90
35541;DHT22;21650;48.840;9.162;2023-04-23T03:12:57;12.80;99.90
35541;DHT22;21650;48.840;9.162;2023-04-23T03:15:24;12.80;99.90
35541;DHT22;21650;48.840;9.162;2023-04-23T03:17:49;12.80;99.90
35541;DHT22;21650;48.840;9.162;2023-04-23T03:20:16;12.80;99.90
35541;DHT22;21650;48.840;9.162;2023-04-23T03:22:43;12.80;99.90
35541;DHT22;21650;48.840;9.162;2023-04-23T03:25:08;12.80;99.90
35541;DHT22;21650;48.840;9.162;2023-04-23T03:27:34;12.80;99.90
35541;DHT22;21650;48.840;9.162;2023-04-23T03:30:00;12.80;99.90
35541;DHT22;21650;48.840;9.162;2023-04-23T03:32:25;12.70;99.90
35541;DHT22;21650;48.840;9.162;2023-04-23T03:34:51;12.70;99.90
35541;DHT22;21650;48.840;9.162;2023-04-23T03:37:16;12.70;99.90
35541;DHT22;21650;48.840;9.162;2023-04-23T03:39:42;12.70;99.90
35541;DHT22;21650;48.840;9.162;2023-04-23T03:42:07;12.70;99.90
35541;DHT22;21650;48.840;9.162;2023-04-23T03:44:33;12.80;99.90
35541;DHT22;21650;48.840;9.162;2023-04-23T03:46:59;12.80;99.90
35541;DHT22;21650;48.840;9.162;2023-04-23T03:49:25;12.70;99.90
35541;DHT22;21650;48.840;9.162;2023-04-23T03:51:51;12.70;99.90
35541;DHT22;21650;48.840;9.162;2023-04-23T03:54:17;12.70;99.90
35541;DHT22;21650;48.840;9.162;2023-04-23T03:56:43;12.70;99.90
35541;DHT22;21650;48.840;9.162;2023-04-23T03:59:10;12.60;99.90
35541;DHT22;21650;48.840;9.162;2023-04-23T04:01:36;12.60;99.90
35541;DHT22;21650;48.840;9.162;2023-04-23T04:04:02;12.60;99.90
35541;DHT22;21650;48.840;9.162;2023-04-23T04:06:27;12.60;99.90
35541;DHT22;21650;48.840;9.162;2023-04-23T04:08:53;12.60;99.90
35541;DHT22;21650;48.840;9.162;2023-04-23T04:11:18;12.60;99.90
35541;DHT22;21650;48.840;9.162;2023-04-23T04:13:44;12.60;99.90
35541;DHT22;21650;48.840;9.162;2023-04-23T04:16:09;12.60;99.90
35541;DHT22;21650;48.840;9.162;2023-04-23T04:18:35;12.50;99.90
35541;DHT22;21650;48.840;9.162;2023-04-23T04:21:01;12.50;99.90
35541;DHT22;21650;48.840;9.162;2023-04-23T04:23:26;12.50;99.90
35541;DHT22;21650;48.840;9.162;2023-04-23T04:25:52;12.40;99.90
35541;DHT22;21650;48.840;9.162;2023-04-23T04:28:21;12.40;99.90
35541;DHT22;21650;48.840;9.162;2023-04-23T04:30:46;12.30;99.90
35541;DHT22;21650;48.840;9.162;2023-04-23T04:33:14;12.30;99.90
35541;DHT22;21650;48.840;9.162;2023-04-23T04:35:40;12.20;99.90
35541;DHT22;21650;48.840;9.162;2023-04-23T04:38:06;12.20;99.90
35541;DHT22;21650;48.840;9.162;2023-04-23T04:40:33;12.10;99.90
35541;DHT22;21650;48.840;9.162;2023-04-23T04:42:58;12.10;99.90
35541;DHT22;21650;48.840;9.162;2023-04-23T04:45:24;12.10;99.90
35541;DHT22;21650;48.840;9.162;2023-04-23T04:47:50;12.10;99.90
35541;DHT22;21650;48.840;9.162;2023-04-23T04:50:16;12.10;99.90
35541;DHT22;21650;48.840;9.162;2023-04-23T04:52:42;12.10;99.90
35541;DHT22;21650;48.840;9.162;2023-04-23T04:55:08;12.10;99.90
35541;DHT22;21650;48.840;9.162;2023-04-23T04:57:34;12.20;99.90
35541;DHT22;21650;48.840;9.162;2023-04-23T05:00:01;12.20;99.90
35541;DHT22;21650;48.840;9.162;2023-04-23T05:02:42;12.20;99.90
35541;DHT22;21650;48.840;9.162;2023-04-23T05:05:08;12.10;99.90
35541;DHT22;21650;48.840;9.162;2023-04-23T05:07:34;12.10;99.90
35541;DHT22;21650;48.840;9.162;2023-04-23T05:10:00;12.10;99.90
35541;DHT22;21650;48.840;9.162;2023-04-23T05:12:26;12.10;99.90
35541;DHT22;21650;48.840;9.162;2023-04-23T05:14:51;12.20;99.90
35541;DHT22;21650;48.840;9.162;2023-04-23T05:17:17;12.20;99.90
35541;DHT22;21650;48.840;9.162;2023-04-23T05:19:43;12.30;99.90
35541;DHT22;21650;48.840;9.162;2023-04-23T05:22:09;12.40;99.90
35541;DHT22;21650;48.840;9.162;2023-04-23T05:24:34;12.40;99.90
35541;DHT22;21650;48.840;9.162;2023-04-23T05:27:00;12.50;99.90
35541;DHT22;21650;48.840;9.162;2023-04-23T05:29:25;12.60;99.90
35541;DHT22;21650;48.840;9.162;2023-04-23T05:31:51;12.60;99.90
35541;DHT22;21650;48.840;9.162;2023-04-23T05:34:17;12.70;99.90
35541;DHT22;21650;48.840;9.162;2023-04-23T05:36:42;12.80;99.90
35541;DHT22;21650;48.840;9.162;2023-04-23T05:39:08;12.80;99.90
35541;DHT22;21650;48.840;9.162;2023-04-23T05:41:34;12.80;99.90
35541;DHT22;21650;48.840;9.162;2023-04-23T05:44:00;12.80;99.90
35541;DHT22;21650;48.840;9.162;2023-04-23T05:46:25;12.80;99.90
35541;DHT22;21650;48.840;9.162;2023-04-23T05:48:51;12.80;99.90
35541;DHT22;21650;48.840;9.162;2023-04-23T05:51:18;12.90;99.90
35541;DHT22;21650;48.840;9.162;2023-04-23T05:53:43;12.90;99.90
35541;DHT22;21650;48.840;9.162;2023-04-23T05:56:09;12.90;99.90
35541;DHT22;21650;48.840;9.162;2023-04-23T05:58:34;13.00;99.90
35541;DHT22;21650;48.840;9.162;2023-04-23T06:01:00;13.10;99.90
35541;DHT22;21650;48.840;9.162;2023-04-23T06:03:26;13.20;99.90
35541;DHT22;21650;48.840;9.162;2023-04-23T06:05:51;13.20;99.90
35541;DHT22;21650;48.840;9.162;2023-04-23T06:08:17;13.30;99.90
35541;DHT22;21650;48.840;9.162;2023-04-23T06:10:45;13.30;99.90
35541;DHT22;21650;48.840;9.162;2023-04-23T06:13:10;13.40;99.90
35541;DHT22;21650;48.840;9.162;2023-04-23T06:15:36;13.40;99.90
35541;DHT22;21650;48.840;9.162;2023-04-23T06:18:02;13.40;99.90
35541;DHT22;21650;48.840;9.162;2023-04-23T06:20:28;13.40;99.90
35541;DHT22;21650;48.840;9.162;2023-04-23T06:22:54;13.50;99.90
35541;DHT22;21650;48.840;9.162;2023-04-23T06:25:20;13.50;99.90
35541;DHT22;21650;48.840;9.162;2023-04-23T06:27:45;13.40;99.90
35541;DHT22;21650;48.840;9.162;2023-04-23T06:30:11;13.40;99.90
35541;DHT22;21650;48.840;9.162;2023-04-23T06:32:37;13.40;99.90
35541;DHT22;21650;48.840;9.162;2023-04-23T06:35:03;13.40;99.90
35541;DHT22;21650;48.840;9.162;2023-04-23T06:37:29;13.40;99.90
35541;DHT22;21650;48.840;9.162;2023-04-23T06:39:57;13.40;99.90
35541;DHT22;21650;48.840;9.162;2023-04-23T06:42:22;13.50;99.90
35541;DHT22;21650;48.840;9.162;2023-04-23T06:44:48;13.50;99.90
35541;DHT22;21650;48.840;9.162;2023-04-23T06:47:14;13.60;99.90
35541;DHT22;21650;48.840;9.162;2023-04-23T06:49:39;13.60;99.90
35541;DHT22;21650;48.840;9.162;2023-04-23T06:52:05;13.80;99.90
35541;DHT22;21650;48.840;9.162;2023-04-23T06:54:31;13.90;99.90
35541;DHT22;21650;48.840;9.162;2023-04-23T06:56:56;14.00;99.90
35541;DHT22;21650;48.840;9.162;2023-04-23T06:59:22;14.10;99.90
35541;DHT22;21650;48.840;9.162;2023-04-23T07:01:48;14.20;99.90
35541;DHT22;21650;48.840;9.162;2023-04-23T07:04:13;14.00;99.90
35541;DHT22;21650;48.840;9.162;2023-04-23T07:06:39;13.90;99.90
35541;DHT22;21650;48.840;9.162;2023-04-23T07:09:05;13.80;99.90
35541;DHT22;21650;48.840;9.162;2023-04-23T07:11:30;13.70;99.90
35541;DHT22;21650;48.840;9.162;2023-04-23T07:13:59;13.90;99.90
35541;DHT22;21650;48.840;9.162;2023-04-23T07:16:24;14.10;99.90
35541;DHT22;21650;48.840;9.162;2023-04-23T07:18:53;14.30;99.90
35541;DHT22;21650;48.840;9.162;2023-04-23T07:21:19;14.50;99.90
35541;DHT22;21650;48.840;9.162;2023-04-23T07:23:45;14.60;99.90
35541;DHT22;21650;48.840;9.162;2023-04-23T07:26:11;14.30;99.90
35541;DHT22;21650;48.840;9.162;2023-04-23T07:28:36;14.40;99.90
35541;DHT22;21650;48.840;9.162;2023-04-23T07:31:02;14.60;99.90
35541;DHT22;21650;48.840;9.162;2023-04-23T07:33:28;14.70;99.90
35541;DHT22;21650;48.840;9.162;2023-04-23T07:35:54;14.80;99.90
35541;DHT22;21650;48.840;9.162;2023-04-23T07:38:20;14.90;99.90
35541;DHT22;21650;48.840;9.162;2023-04-23T07:40:45;14.90;99.90
35541;DHT22;21650;48.840;9.162;2023-04-23T07:43:11;14.90;99.90
35541;DHT22;21650;48.840;9.162;2023-04-23T07:45:38;14.90;99.90
35541;DHT22;21650;48.840;9.162;2023-04-23T07:48:04;14.80;99.90
35541;DHT22;21650;48.840;9.162;2023-04-23T07:50:30;15.00;99.90
35541;DHT22;21650;48.840;9.162;2023-04-23T07:52:55;15.10;99.90
35541;DHT22;21650;48.840;9.162;2023-04-23T07:55:21;15.30;99.90
35541;DHT22;21650;48.840;9.162;2023-04-23T07:57:47;15.30;99.90
35541;DHT22;21650;48.840;9.162;2023-04-23T08:00:13;15.20;99.90
35541;DHT22;21650;48.840;9.162;2023-04-23T08:02:38;15.30;99.90
35541;DHT22;21650;48.840;9.162;2023-04-23T08:05:05;15.30;99.90
35541;DHT22;21650;48.840;9.162;2023-04-23T08:07:31;15.40;99.90
35541;DHT22;21650;48.840;9.162;2023-04-23T08:09:56;15.10;99.90
35541;DHT22;21650;48.840;9.162;2023-04-23T08:12:27;14.80;99.90
35541;DHT22;21650;48.840;9.162;2023-04-23T08:14:53;14.60;99.90
35541;DHT22;21650;48.840;9.162;2023-04-23T08:17:19;14.50;99.90
35541;DHT22;21650;48.840;9.162;2023-04-23T08:19:45;14.40;99.90
35541;DHT22;21650;48.840;9.162;2023-04-23T08:22:10;14.50;99.90
35541;DHT22;21650;48.840;9.162;2023-04-23T08:24:37;14.70;99.90
35541;DHT22;21650;48.840;9.162;2023-04-23T08:27:03;14.70;99.90
35541;DHT22;21650;48.840;9.162;2023-04-23T08:29:29;14.90;99.90
35541;DHT22;21650;48.840;9.162;2023-04-23T08:31:54;15.20;99.90
35541;DHT22;21650;48.840;9.162;2023-04-23T08:34:20;15.30;99.90
35541;DHT22;21650;48.840;9.162;2023-04-23T08:36:45;15.50;99.90
35541;DHT22;21650;48.840;9.162;2023-04-23T08:39:13;15.70;99.90
35541;DHT22;21650;48.840;9.162;2023-04-23T08:41:40;15.60;99.90
35541;DHT22;21650;48.840;9.162;2023-04-23T08:44:21;15.60;99.90
35541;DHT22;21650;48.840;9.162;2023-04-23T08:46:49;15.90;99.90
35541;DHT22;21650;48.840;9.162;2023-04-23T08:49:17;16.10;99.90
35541;DHT22;21650;48.840;9.162;2023-04-23T08:51:53;16.10;99.90
35541;DHT22;21650;48.840;9.162;2023-04-23T08:54:26;16.10;99.90
35541;DHT22;21650;48.840;9.162;2023-04-23T08:56:54;16.10;99.90
35541;DHT22;21650;48.840;9.162;2023-04-23T08:59:21;15.90;99.90
35541;DHT22;21650;48.840;9.162;2023-04-23T09:01:47;16.20;99.90
35541;DHT22;21650;48.840;9.162;2023-04-23T09:04:13;16.60;99.90
35541;DHT22;21650;48.840;9.162;2023-04-23T09:06:45;16.60;99.90
35541;DHT22;21650;48.840;9.162;2023-04-23T09:09:11;16.70;99.90
35541;DHT22;21650;48.840;9.162;2023-04-23T09:11:39;17.30;99.90
35541;DHT22;21650;48.840;9.162;2023-04-23T09:14:06;17.60;99.90
35541;DHT22;21650;48.840;9.162;2023-04-23T09:16:32;17.80;99.90
35541;DHT22;21650;48.840;9.162;2023-04-23T09:18:58;17.50;99.90
35541;DHT22;21650;48.840;9.162;2023-04-23T09:21:24;17.00;99.90
35541;DHT22;21650;48.840;9.162;2023-04-23T09:23:50;17.40;99.90
35541;DHT22;21650;48.840;9.162;2023-04-23T09:26:21;17.10;99.90
35541;DHT22;21650;48.840;9.162;2023-04-23T09:28:48;16.90;99.90
35541;DHT22;21650;48.840;9.162;2023-04-23T09:31:20;16.80;99.90
35541;DHT22;21650;48.840;9.162;2023-04-23T09:33:53;16.80;99.90
35541;DHT22;21650;48.840;9.162;2023-04-23T09:36:22;16.90;99.90
35541;DHT22;21650;48.840;9.162;2023-04-23T09:38:49;17.10;99.90
35541;DHT22;21650;48.840;9.162;2023-04-23T09:41:22;17.00;99.90
35541;DHT22;21650;48.840;9.162;2023-04-23T09:43:48;17.00;99.90
35541;DHT22;21650;48.840;9.162;2023-04-23T09:46:14;17.20;99.90
35541;DHT22;21650;48.840;9.162;2023-04-23T09:48:40;17.30;99.90
35541;DHT22;21650;48.840;9.162;2023-04-23T09:51:07;17.30;99.90
35541;DHT22;21650;48.840;9.162;2023-04-23T09:53:42;17.30;99.90
35541;DHT22;21650;48.840;9.162;2023-04-23T09:56:08;17.00;99.90
35541;DHT22;21650;48.840;9.162;2023-04-23T09:58:34;17.10;99.90
35541;DHT22;21650;48.840;9.162;2023-04-23T10:01:07;17.50;99.90
35541;DHT22;21650;48.840;9.162;2023-04-23T10:03:32;17.60;99.90
35541;DHT22;21650;48.840;9.162;2023-04-23T10:05:58;17.80;99.90
35541;DHT22;21650;48.840;9.162;2023-04-23T10:08:24;17.70;99.90
35541;DHT22;21650;48.840;9.162;2023-04-23T10:10:50;17.30;99.90
35541;DHT22;21650;48.840;9.162;2023-04-23T10:13:17;17.20;99.90
35541;DHT22;21650;48.840;9.162;2023-04-23T10:15:45;17.30;99.90
35541;DHT22;21650;48.840;9.162;2023-04-23T10:18:13;17.30;99.90
35541;DHT22;21650;48.840;9.162;2023-04-23T10:20:39;17.30;99.90
35541;DHT22;21650;48.840;9.162;2023-04-23T10:23:07;17.00;99.90
35541;DHT22;21650;48.840;9.162;2023-04-23T10:25:35;17.00;99.90
35541;DHT22;21650;48.840;9.162;2023-04-23T10:28:03;17.00;99.90
35541;DHT22;21650;48.840;9.162;2023-04-23T10:30:30;17.10;99.90
35541;DHT22;21650;48.840;9.162;2023-04-23T10:32:56;17.20;99.90
35541;DHT22;21650;48.840;9.162;2023-04-23T10:35:24;17.30;99.90
35541;DHT22;21650;48.840;9.162;2023-04-23T10:37:50;17.40;99.90
35541;DHT22;21650;48.840;9.162;2023-04-23T10:40:25;17.40;99.90
35541;DHT22;21650;48.840;9.162;2023-04-23T10:42:54;17.50;99.90
35541;DHT22;21650;48.840;9.162;2023-04-23T10:45:20;17.70;99.90
35541;DHT22;21650;48.840;9.162;2023-04-23T10:47:46;17.70;99.90
35541;DHT22;21650;48.840;9.162;2023-04-23T10:52:48;17.70;99.90
35541;DHT22;21650;48.840;9.162;2023-04-23T10:55:19;17.80;99.40
35541;DHT22;21650;48.840;9.162;2023-04-23T10:58:01;17.80;99.30
35541;DHT22;21650;48.840;9.162;2023-04-23T11:03:35;17.90;99.90
35541;DHT22;21650;48.840;9.162;2023-04-23T11:06:03;18.10;98.50
35541;DHT22;21650;48.840;9.162;2023-04-23T11:08:29;18.30;98.70
35541;DHT22;21650;48.840;9.162;2023-04-23T11:10:59;18.50;99.10
35541;DHT22;21650;48.840;9.162;2023-04-23T11:13:26;18.80;99.70
35541;DHT22;21650;48.840;9.162;2023-04-23T11:16:19;19.00;99.10
35541;DHT22;21650;48.840;9.162;2023-04-23T11:19:08;19.50;99.00
35541;DHT22;21650;48.840;9.162;2023-04-23T11:21:58;19.80;98.80
35541;DHT22;21650;48.840;9.162;2023-04-23T11:24:26;19.90;96.00
35541;DHT22;21650;48.840;9.162;2023-04-23T11:26:51;20.30;95.50
35541;DHT22;21650;48.840;9.162;2023-04-23T11:29:21;19.90;93.90
35541;DHT22;21650;48.840;9.162;2023-04-23T11:31:47;19.70;95.20
35541;DHT22;21650;48.840;9.162;2023-04-23T11:34:13;19.60;95.90
35541;DHT22;21650;48.840;9.162;2023-04-23T11:36:40;19.30;94.30
35541;DHT22;21650;48.840;9.162;2023-04-23T11:39:05;18.90;93.80
35541;DHT22;21650;48.840;9.162;2023-04-23T11:41:32;19.10;95.30
35541;DHT22;21650;48.840;9.162;2023-04-23T11:43:57;19.20;94.60
35541;DHT22;21650;48.840;9.162;2023-04-23T11:46:23;19.30;95.70
35541;DHT22;21650;48.840;9.162;2023-04-23T11:48:49;19.40;96.70
35541;DHT22;21650;48.840;9.162;2023-04-23T11:51:14;19.40;96.70
35541;DHT22;21650;48.840;9.162;2023-04-23T11:53:49;19.40;95.40
35541;DHT22;21650;48.840;9.162;2023-04-23T11:56:15;19.40;93.90
35541;DHT22;21650;48.840;9.162;2023-04-23T11:58:41;19.50;94.90
35541;DHT22;21650;48.840;9.162;2023-04-23T12:01:06;19.60;94.00
35541;DHT22;21650;48.840;9.162;2023-04-23T12:03:32;19.70;94.60
35541;DHT22;21650;48.840;9.162;2023-04-23T12:05:58;19.80;94.40
35541;DHT22;21650;48.840;9.162;2023-04-23T12:08:24;20.00;94.80
35541;DHT22;21650;48.840;9.162;2023-04-23T12:10:54;20.00;94.60
35541;DHT22;21650;48.840;9.162;2023-04-23T12:13:25;20.00;93.40
35541;DHT22;21650;48.840;9.162;2023-04-23T12:15:53;20.30;94.40
35541;DHT22;21650;48.840;9.162;2023-04-23T12:18:29;20.50;94.70
35541;DHT22;21650;48.840;9.162;2023-04-23T12:20:56;20.60;93.00
35541;DHT22;21650;48.840;9.162;2023-04-23T12:23:28;20.60;93.80
35541;DHT22;21650;48.840;9.162;2023-04-23T12:25:54;20.40;94.40
35541;DHT22;21650;48.840;9.162;2023-04-23T12:28:23;20.20;94.40
35541;DHT22;21650;48.840;9.162;2023-04-23T12:30:49;20.60;94.80
35541;DHT22;21650;48.840;9.162;2023-04-23T12:33:15;20.70;91.60
35541;DHT22;21650;48.840;9.162;2023-04-23T12:38:07;20.20;92.90
35541;DHT22;21650;48.840;9.162;2023-04-23T12:40:44;20.20;93.80
35541;DHT22;21650;48.840;9.162;2023-04-23T12:43:10;20.10;94.10
35541;DHT22;21650;48.840;9.162;2023-04-23T12:45:36;19.90;93.90
35541;DHT22;21650;48.840;9.162;2023-04-23T12:48:02;20.20;94.70
35541;DHT22;21650;48.840;9.162;2023-04-23T12:50:28;20.40;94.20
35541;DHT22;21650;48.840;9.162;2023-04-23T12:52:54;20.60;92.60
35541;DHT22;21650;48.840;9.162;2023-04-23T12:55:19;20.20;93.00
35541;DHT22;21650;48.840;9.162;2023-04-23T12:57:45;20.30;94.40
35541;DHT22;21650;48.840;9.162;2023-04-23T13:00:11;20.20;93.90
35541;DHT22;21650;48.840;9.162;2023-04-23T13:02:37;20.30;94.10
35541;DHT22;21650;48.840;9.162;2023-04-23T13:05:03;20.90;94.00
35541;DHT22;21650;48.840;9.162;2023-04-23T13:07:28;21.30;93.70
35541;DHT22;21650;48.840;9.162;2023-04-23T13:09:54;21.50;93.30
35541;DHT22;21650;48.840;9.162;2023-04-23T13:12:21;20.90;92.10
35541;DHT22;21650;48.840;9.162;2023-04-23T13:14:47;20.40;92.90
35541;DHT22;21650;48.840;9.162;2023-04-23T13:17:13;20.10;93.30
35541;DHT22;21650;48.840;9.162;2023-04-23T13:19:39;20.50;94.20
35541;DHT22;21650;48.840;9.162;2023-04-23T13:22:04;20.80;92.40
35541;DHT22;21650;48.840;9.162;2023-04-23T13:24:30;20.70;92.80
35541;DHT22;21650;48.840;9.162;2023-04-23T13:26:56;20.30;93.20
35541;DHT22;21650;48.840;9.162;2023-04-23T13:29:23;20.30;93.80
35541;DHT22;21650;48.840;9.162;2023-04-23T13:31:48;21.00;92.90
35541;DHT22;21650;48.840;9.162;2023-04-23T13:34:14;21.60;92.80
35541;DHT22;21650;48.840;9.162;2023-04-23T13:36:40;22.10;91.50
35541;DHT22;21650;48.840;9.162;2023-04-23T13:39:06;22.60;90.20
35541;DHT22;21650;48.840;9.162;2023-04-23T13:41:33;22.80;86.10
35541;DHT22;21650;48.840;9.162;2023-04-23T13:43:59;22.70;87.80
35541;DHT22;21650;48.840;9.162;2023-04-23T13:46:25;22.40;86.00
35541;DHT22;21650;48.840;9.162;2023-04-23T13:48:52;22.60;87.50
35541;DHT22;21650;48.840;9.162;2023-04-23T13:51:18;22.60;83.20
35541;DHT22;21650;48.840;9.162;2023-04-23T13:53:43;22.80;84.10
35541;DHT22;21650;48.840;9.162;2023-04-23T13:56:09;22.90;81.30
35541;DHT22;21650;48.840;9.162;2023-04-23T13:58:34;23.00;78.70
35541;DHT22;21650;48.840;9.162;2023-04-23T14:01:00;22.90;79.90
35541;DHT22;21650;48.840;9.162;2023-04-23T14:03:25;22.80;77.90
35541;DHT22;21650;48.840;9.162;2023-04-23T14:05:51;23.50;79.90
35541;DHT22;21650;48.840;9.162;2023-04-23T14:08:17;23.40;78.50
35541;DHT22;21650;48.840;9.162;2023-04-23T14:10:42;23.30;79.70
35541;DHT22;21650;48.840;9.162;2023-04-23T14:13:08;23.30;78.30
35541;DHT22;21650;48.840;9.162;2023-04-23T14:15:34;23.50;78.70
35541;DHT22;21650;48.840;9.162;2023-04-23T14:17:59;23.40;75.50
35541;DHT22;21650;48.840;9.162;2023-04-23T14:20:25;22.90;77.30
35541;DHT22;21650;48.840;9.162;2023-04-23T14:22:56;22.30;77.90
35541;DHT22;21650;48.840;9.162;2023-04-23T14:25:29;22.40;79.60
35541;DHT22;21650;48.840;9.162;2023-04-23T14:27:56;22.60;81.70
35541;DHT22;21650;48.840;9.162;2023-04-23T14:30:26;22.40;74.60
35541;DHT22;21650;48.840;9.162;2023-04-23T14:32:54;22.20;73.70
35541;DHT22;21650;48.840;9.162;2023-04-23T14:35:21;22.40;75.10
35541;DHT22;21650;48.840;9.162;2023-04-23T14:37:47;22.50;72.70
35541;DHT22;21650;48.840;9.162;2023-04-23T14:40:13;22.50;73.10
35541;DHT22;21650;48.840;9.162;2023-04-23T14:42:44;21.60;73.70
35541;DHT22;21650;48.840;9.162;2023-04-23T14:45:10;21.30;76.20
35541;DHT22;21650;48.840;9.162;2023-04-23T14:47:36;21.30;74.00
35541;DHT22;21650;48.840;9.162;2023-04-23T14:50:02;21.40;75.80
35541;DHT22;21650;48.840;9.162;2023-04-23T14:52:27;21.40;75.70
35541;DHT22;21650;48.840;9.162;2023-04-23T14:54:53;21.50;75.40
35541;DHT22;21650;48.840;9.162;2023-04-23T14:57:20;21.40;75.80
35541;DHT22;21650;48.840;9.162;2023-04-23T14:59:46;21.20;75.70
35541;DHT22;21650;48.840;9.162;2023-04-23T15:02:12;21.00;75.90
35541;DHT22;21650;48.840;9.162;2023-04-23T15:04:37;20.70;75.80
35541;DHT22;21650;48.840;9.162;2023-04-23T15:07:03;20.70;76.90
35541;DHT22;21650;48.840;9.162;2023-04-23T15:09:29;20.50;78.60
35541;DHT22;21650;48.840;9.162;2023-04-23T15:11:54;20.60;78.00
35541;DHT22;21650;48.840;9.162;2023-04-23T15:14:36;20.40;79.90
35541;DHT22;21650;48.840;9.162;2023-04-23T15:17:02;20.20;86.90
35541;DHT22;21650;48.840;9.162;2023-04-23T15:19:27;20.00;90.40
35541;DHT22;21650;48.840;9.162;2023-04-23T15:21:55;19.90;92.30
35541;DHT22;21650;48.840;9.162;2023-04-23T15:24:21;19.70;94.00
35541;DHT22;21650;48.840;9.162;2023-04-23T15:26:47;19.60;94.40
35541;DHT22;21650;48.840;9.162;2023-04-23T15:29:13;19.50;93.50
35541;DHT22;21650;48.840;9.162;2023-04-23T15:31:39;19.40;93.50
35541;DHT22;21650;48.840;9.162;2023-04-23T15:34:06;19.40;93.10